Time;durP1;ratioP1;P1;durP2;ratioP2;P2;SDS_P1;SDS_P2;PMS_P1;PMS_P2;Temp;Humidity;BMP_temperature;BMP_pressure;BME280_temperature;BME280_humidity;BME280_pressure;Samples;Min_cycle;Max_cycle;Signal;HPM_P1;HPM_P2
2022/07/09 00:00:15;;;;;;;8.05;2.55;;;;;;;13.42;71.13;97354.34;4874340;29;20130;-82
2022/07/09 00:02:41;;;;;;;6.00;2.45;;;;;;;13.44;70.66;97346.63;4875255;29;20052;-82
2022/07/09 00:05:10;;;;;;;5.22;2.17;;;;;;;13.37;69.96;97349.00;4869901;29;20060;-82
2022/07/09 00:07:37;;;;;;;6.03;2.10;;;;;;;13.21;69.34;97348.53;4870478;29;20049;-82
2022/07/09 00:10:10;;;;;;;2.75;1.85;;;;;;;13.31;69.80;97338.19;4870074;29;20045;-81
2022/07/09 00:12:36;;;;;;;;;;;;;;;13.29;70.49;97334.94;4870347;29;20049;-81
2022/07/09 00:15:03;;;;;;;5.90;2.40;;;;;;;13.34;70.19;97335.94;4850190;29;19924;-82
2022/07/09 00:17:31;;;;;;;4.85;2.53;;;;;;;13.24;69.69;97340.53;4853616;29;20042;-82
2022/07/09 00:19:58;;;;;;;3.70;2.00;;;;;;;13.30;70.13;97335.72;4854801;29;20061;-82
2022/07/09 00:22:27;;;;;;;6.28;2.38;;;;;;;13.20;69.63;97339.50;4853374;29;20056;-81
2022/07/09 00:24:54;;;;;;;4.63;2.28;;;;;;;13.26;70.29;97334.75;4853373;29;20136;-83
2022/07/09 00:27:22;;;;;;;4.80;2.08;;;;;;;13.30;70.74;97333.81;4837826;29;20054;-84
2022/07/09 00:29:49;;;;;;;3.78;2.10;;;;;;;13.34;71.55;97330.44;4853529;29;20046;-82
2022/07/09 00:32:16;;;;;;;5.72;2.13;;;;;;;13.35;71.40;97334.81;4852343;29;20061;-82
2022/07/09 00:34:42;;;;;;;4.38;2.20;;;;;;;13.32;70.92;97331.59;4853757;29;20053;-83
2022/07/09 00:37:09;;;;;;;4.65;2.22;;;;;;;13.31;71.11;97327.25;4852423;29;20046;-81
2022/07/09 00:39:35;;;;;;;3.50;2.15;;;;;;;13.29;70.89;97323.97;4853236;29;20524;-82
2022/07/09 00:42:04;;;;;;;3.75;2.28;;;;;;;13.02;70.21;97327.63;4851530;29;20099;-81
2022/07/09 00:44:32;;;;;;;5.63;2.47;;;;;;;13.00;70.72;97326.34;4853473;29;20506;-83
2022/07/09 00:46:59;;;;;;;4.63;2.08;;;;;;;13.05;70.80;97316.09;4851895;29;20046;-83
2022/07/09 00:49:26;;;;;;;4.93;2.05;;;;;;;13.00;71.05;97315.41;4852266;29;20045;-83
2022/07/09 00:51:53;;;;;;;4.68;2.40;;;;;;;12.99;71.61;97319.22;4853790;29;20050;-82
2022/07/09 00:54:20;;;;;;;4.80;2.03;;;;;;;13.02;71.47;97313.16;4852744;29;20060;-82
2022/07/09 00:56:48;;;;;;;4.82;2.30;;;;;;;13.01;71.59;97323.28;4862531;29;20057;-82
2022/07/09 00:59:14;;;;;;;3.55;1.90;;;;;;;13.04;72.41;97321.84;4872168;29;20061;-82
2022/07/09 01:01:43;;;;;;;5.45;2.42;;;;;;;13.08;72.89;97317.38;4873473;29;20551;-82
2022/07/09 01:04:11;;;;;;;4.22;2.30;;;;;;;13.09;72.31;97318.97;4900490;23;20069;-82
2022/07/09 01:06:38;;;;;;;6.30;2.40;;;;;;;13.15;72.70;97316.94;4908413;29;20044;-83
2022/07/09 01:09:05;;;;;;;3.88;1.98;;;;;;;13.23;73.30;97319.75;4907279;29;20044;-83
2022/07/09 01:11:32;;;;;;;4.10;2.00;;;;;;;13.27;72.68;97315.28;4909414;29;20077;-83
2022/07/09 01:13:59;;;;;;;8.38;2.40;;;;;;;13.27;72.88;97315.28;4909701;29;20044;-84
2022/07/09 01:16:33;;;;;;;5.10;2.20;;;;;;;13.33;73.78;97313.25;4909316;29;20052;-82
2022/07/09 01:19:01;;;;;;;5.85;2.33;;;;;;;13.36;73.94;97307.13;4894504;29;20104;-82
2022/07/09 01:21:30;;;;;;;4.20;2.35;;;;;;;13.29;73.30;97302.09;4890085;29;20059;-84
2022/07/09 01:23:59;;;;;;;5.35;2.10;;;;;;;13.29;72.95;97302.09;4904886;29;20075;-82
2022/07/09 01:26:27;;;;;;;6.05;2.00;;;;;;;13.35;73.11;97304.72;4896020;29;20109;-85
2022/07/09 01:28:56;;;;;;;3.33;1.88;;;;;;;13.38;73.93;97302.16;4893707;29;20041;-83
2022/07/09 01:31:23;;;;;;;6.57;2.10;;;;;;;13.30;71.83;97300.16;4893655;29;20056;-82
2022/07/09 01:33:49;;;;;;;7.47;2.58;;;;;;;13.16;71.69;97292.03;4875424;29;20045;-82
2022/07/09 01:36:17;;;;;;;3.53;2.05;;;;;;;13.30;71.83;97298.25;4891755;29;20055;-82
2022/07/09 01:38:45;;;;;;;4.85;2.08;;;;;;;13.39;72.52;97297.50;4893545;29;20073;-82
2022/07/09 01:41:12;;;;;;;5.38;2.13;;;;;;;13.38;72.32;97293.97;4890959;29;20068;-84
2022/07/09 01:43:38;;;;;;;4.63;2.20;;;;;;;13.42;72.55;97294.16;4892269;29;20047;-83
2022/07/09 01:46:06;;;;;;;5.43;2.33;;;;;;;13.40;72.28;97285.44;4892492;29;20037;-82
2022/07/09 01:48:35;;;;;;;5.10;2.50;;;;;;;13.35;71.83;97286.38;4891284;29;20400;-83
2022/07/09 01:51:02;;;;;;;5.43;2.38;;;;;;;13.33;71.86;97283.16;4892651;29;20045;-77
2022/07/09 01:53:29;;;;;;;5.45;2.30;;;;;;;13.34;72.21;97286.69;4892700;29;20059;-82
2022/07/09 01:55:58;;;;;;;4.55;1.95;;;;;;;13.34;72.12;97282.03;4891777;29;20060;-83
2022/07/09 01:58:24;;;;;;;4.40;2.30;;;;;;;13.43;73.39;97279.34;4895254;29;20105;-82
2022/07/09 02:00:51;;;;;;;3.92;2.00;;;;;;;13.46;73.86;97284.97;4894003;29;20113;-84
2022/07/09 02:03:18;;;;;;;4.70;2.17;;;;;;;13.44;74.79;97286.44;4892929;29;20053;-83
2022/07/09 02:05:44;;;;;;;9.45;2.47;;;;;;;13.50;75.23;97280.50;4895990;29;20113;-83
2022/07/09 02:08:11;;;;;;;3.80;2.05;;;;;;;13.43;74.82;97271.13;4893220;29;20049;-85
2022/07/09 02:10:38;;;;;;;4.80;2.20;;;;;;;13.48;74.13;97271.00;4892200;29;20049;-83
2022/07/09 02:13:06;;;;;;;4.45;2.35;;;;;;;13.54;74.35;97265.06;4892876;29;20108;-82
2022/07/09 02:15:33;;;;;;;10.48;3.13;;;;;;;13.45;73.56;97266.16;4893396;29;20041;-82
2022/07/09 02:18:00;;;;;;;4.68;2.40;;;;;;;13.48;73.48;97271.00;4905988;23;20053;-83
2022/07/09 02:20:27;;;;;;;4.13;2.33;;;;;;;13.44;73.90;97268.06;4889876;29;20064;-82
2022/07/09 02:22:53;;;;;;;3.88;2.30;;;;;;;13.47;73.68;97270.19;4882939;29;20109;-77
2022/07/09 02:25:20;;;;;;;5.95;2.70;;;;;;;13.38;74.04;97260.31;4878938;29;20053;-77
2022/07/09 02:27:46;;;;;;;4.15;2.78;;;;;;;13.35;74.03;97266.41;4879191;29;20048;-76
2022/07/09 02:30:14;;;;;;;5.00;2.35;;;;;;;13.45;74.13;97255.19;4878449;29;20061;-76
2022/07/09 02:32:41;;;;;;;4.70;2.28;;;;;;;13.49;74.10;97256.19;4879081;29;20045;-78
2022/07/09 02:35:08;;;;;;;4.13;2.20;;;;;;;13.47;73.89;97259.25;4877930;29;20084;-77
2022/07/09 02:37:35;;;;;;;7.55;2.72;;;;;;;13.39;74.25;97242.78;4878881;29;20052;-77
2022/07/09 02:40:01;;;;;;;5.35;2.45;;;;;;;13.27;74.77;97249.66;4878379;29;20048;-78
2022/07/09 02:42:28;;;;;;;4.35;2.30;;;;;;;13.39;74.60;97251.00;4878840;29;20052;-78
2022/07/09 02:44:54;;;;;;;7.90;2.55;;;;;;;13.42;74.18;97250.38;4878852;29;20045;-77
2022/07/09 02:47:23;;;;;;;6.13;2.40;;;;;;;13.43;74.52;97260.19;4878300;29;21448;-78
2022/07/09 02:49:49;;;;;;;4.95;2.47;;;;;;;13.50;75.29;97264.09;4878531;29;20060;-77
2022/07/09 02:52:16;;;;;;;5.72;2.15;;;;;;;13.52;75.60;97255.53;4878265;29;20052;-78
2022/07/09 02:54:42;;;;;;;4.68;2.35;;;;;;;13.52;75.16;97255.53;4878489;29;20040;-77
2022/07/09 02:57:09;;;;;;;4.68;2.30;;;;;;;13.56;74.69;97257.34;4878191;29;20080;-77
2022/07/09 02:59:36;;;;;;;4.13;2.42;;;;;;;13.64;75.78;97265.94;4878797;29;20132;-78
2022/07/09 03:02:02;;;;;;;4.88;2.28;;;;;;;13.58;74.82;97265.25;4878011;29;20045;-77
2022/07/09 03:04:31;;;;;;;5.03;2.40;;;;;;;13.63;75.65;97267.84;4878254;29;20052;-78
2022/07/09 03:06:57;;;;;;;4.65;2.65;;;;;;;13.66;76.19;97267.22;4878506;29;20041;-77
2022/07/09 03:09:24;;;;;;;6.72;2.67;;;;;;;13.55;77.25;97266.69;4877880;29;20442;-79
2022/07/09 03:11:50;;;;;;;4.35;2.33;;;;;;;13.65;77.02;97271.06;4878333;29;20057;-79
2022/07/09 03:14:17;;;;;;;6.50;2.53;;;;;;;13.69;77.09;97272.06;4877869;29;20045;-77
2022/07/09 03:16:43;;;;;;;3.65;2.28;;;;;;;13.69;76.59;97271.25;4878171;29;20052;-79
2022/07/09 03:19:10;;;;;;;5.07;2.80;;;;;;;13.67;76.35;97263.34;4877304;29;20140;-78
2022/07/09 03:21:38;;;;;;;3.70;2.47;;;;;;;13.69;76.52;97272.06;4878277;29;20571;-77
2022/07/09 03:24:05;;;;;;;3.72;2.33;;;;;;;13.72;76.86;97263.22;4877644;29;20052;-77
2022/07/09 03:26:32;;;;;;;4.15;2.33;;;;;;;13.74;76.81;97260.97;4878362;29;20069;-78
2022/07/09 03:28:58;;;;;;;6.38;2.40;;;;;;;13.70;76.45;97261.91;4878077;29;20045;-77
2022/07/09 03:31:25;;;;;;;3.50;2.25;;;;;;;13.67;76.13;97268.00;4877644;29;20048;-77
2022/07/09 03:33:53;;;;;;;5.30;2.30;;;;;;;13.65;76.25;97254.66;4877912;29;20051;-77
2022/07/09 03:36:20;;;;;;;4.65;2.58;;;;;;;13.64;76.24;97258.53;4877636;29;20531;-77
2022/07/09 03:38:47;;;;;;;6.35;2.45;;;;;;;13.64;76.27;97264.00;4877876;29;20041;-78
2022/07/09 03:41:14;;;;;;;4.63;2.10;;;;;;;13.61;76.38;97264.59;4877328;29;20052;-78
2022/07/09 03:43:40;;;;;;;5.90;2.70;;;;;;;13.61;76.22;97267.34;4877906;29;20045;-79
2022/07/09 03:46:07;;;;;;;8.73;3.03;;;;;;;13.54;76.45;97264.25;4877268;29;20505;-78
2022/07/09 03:48:34;;;;;;;3.85;2.30;;;;;;;13.56;75.84;97256.53;4876892;29;20053;-77
2022/07/09 03:51:01;;;;;;;6.43;2.53;;;;;;;13.54;76.46;97258.78;4877721;29;20540;-77
2022/07/09 03:53:27;;;;;;;6.70;3.15;;;;;;;13.53;76.22;97263.47;4877354;29;20401;-77
2022/07/09 03:55:55;;;;;;;8.02;2.83;;;;;;;13.43;76.30;97261.00;4877903;29;20064;-77
2022/07/09 03:58:22;;;;;;;4.38;2.25;;;;;;;13.52;76.26;97266.50;4858369;29;20068;-78
2022/07/09 04:00:48;;;;;;;5.45;2.60;;;;;;;13.47;76.56;97263.91;4858696;29;20045;-77
2022/07/09 04:03:15;;;;;;;4.85;2.58;;;;;;;13.54;76.42;97269.75;4858136;29;20050;-79
2022/07/09 04:05:44;;;;;;;4.72;2.60;;;;;;;13.61;76.42;97264.59;4858316;29;20046;-78
2022/07/09 04:08:10;;;;;;;7.07;2.63;;;;;;;13.48;76.52;97265.53;4858183;29;20065;-78
2022/07/09 04:10:37;;;;;;;5.95;2.60;;;;;;;13.34;77.25;97264.81;4858692;29;20050;-78
2022/07/09 04:13:05;;;;;;;3.88;2.20;;;;;;;13.23;77.41;97265.06;4858092;29;20410;-77
2022/07/09 04:15:33;;;;;;;8.27;3.45;;;;;;;13.23;77.41;97265.06;4858483;29;20046;-78
2022/07/09 04:17:59;;;;;;;5.38;3.00;;;;;;;13.35;77.25;97266.41;4858306;29;20053;-78
2022/07/09 04:20:26;;;;;;;5.85;3.05;;;;;;;13.29;77.55;97269.28;4857869;29;20053;-77
2022/07/09 04:22:53;;;;;;;5.50;2.72;;;;;;;13.41;77.54;97274.16;4858539;29;20041;-78
2022/07/09 04:25:21;;;;;;;4.85;2.65;;;;;;;13.50;77.48;97276.97;4858029;29;20061;-77
2022/07/09 04:27:48;;;;;;;6.68;3.20;;;;;;;13.58;77.78;97273.47;4874364;29;20045;-77
2022/07/09 04:30:16;;;;;;;4.00;2.55;;;;;;;13.59;77.76;97272.34;4876114;29;20056;-78
2022/07/09 04:32:42;;;;;;;6.28;2.97;;;;;;;13.60;78.06;97273.94;4876928;29;20052;-77
2022/07/09 04:35:09;;;;;;;3.30;2.40;;;;;;;13.68;78.47;97275.94;4876377;29;20049;-77
2022/07/09 04:37:35;;;;;;;5.70;2.90;;;;;;;13.75;78.45;97270.78;4877074;29;20041;-78
2022/07/09 04:40:02;;;;;;;7.28;2.90;;;;;;;13.76;78.68;97272.41;4876195;29;20056;-77
2022/07/09 04:42:29;;;;;;;3.42;2.30;;;;;;;13.79;78.63;97277.25;4876799;29;20462;-77
2022/07/09 04:44:57;;;;;;;6.05;2.60;;;;;;;13.61;78.18;97272.81;4876704;29;20049;-78
2022/07/09 04:47:25;;;;;;;5.93;2.67;;;;;;;13.71;78.20;97269.81;4876254;29;20053;-78
2022/07/09 04:49:52;;;;;;;4.68;2.60;;;;;;;13.75;78.24;97279.00;4876668;29;20041;-79
2022/07/09 04:52:19;;;;;;;3.85;2.30;;;;;;;13.86;78.08;97278.72;4876085;29;20045;-77
2022/07/09 04:54:46;;;;;;;5.10;2.45;;;;;;;13.92;78.07;97274.72;4876356;29;20047;-78
2022/07/09 04:57:13;;;;;;;6.22;2.83;;;;;;;14.00;78.24;97276.69;4875071;29;20048;-78
2022/07/09 04:59:39;;;;;;;4.47;2.42;;;;;;;14.10;77.61;97265.44;4876282;29;20049;-78
2022/07/09 05:02:06;;;;;;;5.57;2.80;;;;;;;13.86;77.20;97274.06;4875966;29;20052;-78
2022/07/09 05:04:34;;;;;;;7.53;2.75;;;;;;;14.12;77.00;97274.13;4876610;29;20045;-77
2022/07/09 05:07:01;;;;;;;6.93;2.53;;;;;;;14.08;76.64;97273.16;4876254;29;20200;-78
2022/07/09 05:09:27;;;;;;;3.58;2.25;;;;;;;14.15;76.49;97284.47;4875697;29;20501;-78
2022/07/09 05:11:54;;;;;;;7.05;2.65;;;;;;;14.10;77.24;97287.34;4876435;29;20049;-77
2022/07/09 05:14:21;;;;;;;4.15;2.53;;;;;;;14.23;77.19;97288.34;4875836;29;20049;-78
2022/07/09 05:16:48;;;;;;;4.13;2.70;;;;;;;14.33;78.31;97286.09;4876339;29;20053;-78
2022/07/09 05:19:15;;;;;;;4.05;2.60;;;;;;;14.33;77.18;97283.38;4875513;29;20409;-77
2022/07/09 05:21:43;;;;;;;4.85;2.63;;;;;;;14.35;77.81;97289.34;4876314;29;20093;-78
2022/07/09 05:24:10;;;;;;;6.95;2.65;;;;;;;14.38;77.00;97285.16;4875588;29;20537;-78
2022/07/09 05:26:36;;;;;;;5.43;2.80;;;;;;;14.35;76.80;97292.09;4876772;29;20125;-78
2022/07/09 05:29:03;;;;;;;6.60;2.90;;;;;;;14.31;78.91;97293.84;4875714;29;20049;-78
2022/07/09 05:31:30;;;;;;;4.45;2.60;;;;;;;14.39;79.31;97286.75;4876361;29;20053;-77
2022/07/09 05:33:56;;;;;;;5.75;2.70;;;;;;;14.49;79.10;97293.91;4876124;29;20501;-78
2022/07/09 05:36:23;;;;;;;4.80;2.95;;;;;;;14.44;79.38;97285.81;4875605;29;20053;-77
2022/07/09 05:38:51;;;;;;;5.10;2.80;;;;;;;14.43;79.81;97298.72;4876280;29;20512;-78
2022/07/09 05:41:19;;;;;;;5.22;2.70;;;;;;;14.33;79.95;97302.56;4875594;29;20049;-79
2022/07/09 05:43:45;;;;;;;5.95;3.05;;;;;;;14.44;79.81;97294.84;4876189;29;20045;-78
2022/07/09 05:46:12;;;;;;;7.65;2.85;;;;;;;14.62;79.32;97292.97;4875718;29;20064;-79
2022/07/09 05:48:38;;;;;;;4.57;2.85;;;;;;;14.64;78.44;97292.63;4875946;29;20041;-78
2022/07/09 05:51:05;;;;;;;5.13;2.58;;;;;;;14.67;78.90;97294.72;4867729;29;20497;-78
2022/07/09 05:53:32;;;;;;;6.15;2.67;;;;;;;14.61;77.98;97291.34;4875886;29;20053;-78
2022/07/09 05:56:00;;;;;;;7.28;2.75;;;;;;;14.59;77.54;97293.59;4876458;29;20055;-77
2022/07/09 05:58:26;;;;;;;5.80;2.60;;;;;;;14.64;78.05;97290.69;4875974;29;21084;-77
2022/07/09 06:00:53;;;;;;;6.35;3.35;;;;;;;14.48;78.24;97289.56;4876024;29;20052;-77
2022/07/09 06:03:19;;;;;;;4.65;2.90;;;;;;;14.42;78.27;97277.91;4875515;29;20049;-77
2022/07/09 06:05:46;;;;;;;5.97;2.70;;;;;;;14.50;79.85;97285.34;4875937;29;20052;-77
2022/07/09 06:08:13;;;;;;;6.97;2.85;;;;;;;14.54;78.97;97288.28;4875574;29;20464;-77
2022/07/09 06:10:39;;;;;;;4.95;3.00;;;;;;;14.40;79.52;97284.81;4877392;29;20105;-79
2022/07/09 06:13:07;;;;;;;5.75;3.25;;;;;;;14.24;80.22;97282.53;4879021;29;20048;-78
2022/07/09 06:15:34;;;;;;;7.90;3.03;;;;;;;14.21;79.80;97285.13;4879402;29;20049;-78
2022/07/09 06:18:01;;;;;;;8.10;3.30;;;;;;;14.14;79.76;97287.50;4879259;29;20397;-78
2022/07/09 06:20:28;;;;;;;5.10;2.97;;;;;;;14.12;79.89;97287.84;4879312;29;20390;-78
2022/07/09 06:22:54;;;;;;;4.60;2.80;;;;;;;14.27;79.41;97292.88;4879298;29;20059;-78
2022/07/09 06:25:21;;;;;;;5.47;3.00;;;;;;;14.32;78.92;97283.69;4878829;29;20076;-77
2022/07/09 06:27:47;;;;;;;5.70;3.20;;;;;;;14.36;78.49;97290.16;4879980;29;20049;-79
2022/07/09 06:30:15;;;;;;;6.60;3.47;;;;;;;14.45;79.51;97292.91;4878734;29;20497;-78
2022/07/09 06:32:42;;;;;;;5.80;2.70;;;;;;;14.50;79.30;97296.31;4878994;29;20891;-77
2022/07/09 06:35:09;;;;;;;7.80;3.00;;;;;;;14.35;79.09;97291.25;4878820;29;20049;-78
2022/07/09 06:37:35;;;;;;;4.60;3.00;;;;;;;14.36;79.24;97290.97;4878420;29;20052;-77
2022/07/09 06:40:02;;;;;;;5.18;2.95;;;;;;;14.49;78.14;97291.16;4878156;29;20418;-77
2022/07/09 06:42:29;;;;;;;6.95;3.45;;;;;;;14.63;78.41;97289.09;4878864;29;20060;-78
2022/07/09 06:44:55;;;;;;;4.40;2.85;;;;;;;14.69;78.60;97284.25;4878957;29;20049;-79
2022/07/09 06:47:23;;;;;;;4.93;2.88;;;;;;;14.77;78.45;97284.28;4878116;29;20060;-77
2022/07/09 06:49:50;;;;;;;4.18;3.00;;;;;;;14.86;78.54;97298.78;4878405;29;20537;-78
2022/07/09 06:52:17;;;;;;;5.85;2.80;;;;;;;14.85;78.15;97286.19;4878195;29;20413;-77
2022/07/09 06:54:43;;;;;;;4.68;2.90;;;;;;;14.67;77.68;97283.75;4878390;29;20048;-77
2022/07/09 06:57:10;;;;;;;5.88;3.00;;;;;;;14.66;77.52;97279.41;4878476;29;20049;-77
2022/07/09 06:59:41;;;;;;;5.85;3.05;;;;;;;14.73;78.05;97282.50;4878419;29;20497;-78
2022/07/09 07:02:08;;;;;;;4.93;3.00;;;;;;;14.78;78.31;97280.41;4877363;29;20564;-77
2022/07/09 07:04:35;;;;;;;6.93;3.13;;;;;;;14.76;77.45;97282.63;4878541;29;20048;-77
2022/07/09 07:07:02;;;;;;;6.68;3.60;;;;;;;14.85;78.06;97290.88;4877964;29;20144;-79
2022/07/09 07:09:29;;;;;;;7.63;3.55;;;;;;;14.81;77.68;97285.22;4878276;29;20048;-77
2022/07/09 07:11:56;;;;;;;7.75;3.22;;;;;;;14.83;78.36;97293.94;4878140;29;20148;-78
2022/07/09 07:14:22;;;;;;;7.25;3.03;;;;;;;14.72;77.54;97286.34;4877481;29;20089;-78
2022/07/09 07:16:49;;;;;;;7.90;3.40;;;;;;;14.72;77.53;97281.69;4877854;29;20073;-77
2022/07/09 07:19:16;;;;;;;7.38;2.70;;;;;;;14.77;77.21;97284.28;4877596;29;20057;-77
2022/07/09 07:21:44;;;;;;;7.05;2.90;;;;;;;14.82;77.47;97286.81;4877781;29;20530;-78
2022/07/09 07:24:11;;;;;;;3.65;2.72;;;;;;;14.90;77.26;97276.19;4877437;29;20052;-77
2022/07/09 07:26:38;;;;;;;7.72;3.10;;;;;;;14.90;76.76;97287.16;4878300;29;20497;-77
2022/07/09 07:29:04;;;;;;;6.60;2.95;;;;;;;15.11;76.99;97277.16;4877304;29;20052;-79
2022/07/09 07:31:31;;;;;;;6.63;2.67;;;;;;;15.10;76.79;97273.59;4877991;29;20056;-77
2022/07/09 07:33:59;;;;;;;5.90;2.80;;;;;;;15.12;74.63;97271.31;4878023;29;20053;-77
2022/07/09 07:36:26;;;;;;;5.82;3.00;;;;;;;14.97;75.95;97271.81;4876978;29;20135;-78
2022/07/09 07:38:54;;;;;;;4.28;2.58;;;;;;;15.11;75.29;97277.94;4877830;29;20048;-77
2022/07/09 07:41:21;;;;;;;4.22;2.65;;;;;;;15.20;74.95;97268.91;4877377;29;20053;-78
2022/07/09 07:43:47;;;;;;;7.32;2.70;;;;;;;15.39;74.79;97270.13;4877519;29;20044;-77
2022/07/09 07:46:14;;;;;;;5.78;2.80;;;;;;;15.51;73.22;97268.69;4877130;29;20539;-77
2022/07/09 07:48:41;;;;;;;6.30;2.67;;;;;;;15.39;71.37;97267.41;4879915;29;20049;-77
2022/07/09 07:51:09;;;;;;;5.70;2.42;;;;;;;15.61;71.77;97263.63;4879745;29;20720;-77
2022/07/09 07:53:36;;;;;;;6.65;2.70;;;;;;;15.57;71.28;97268.16;4877588;29;20052;-78
2022/07/09 07:56:05;;;;;;;5.35;2.72;;;;;;;15.82;71.33;97263.75;4877767;29;20053;-78
2022/07/09 07:58:32;;;;;;;8.20;2.72;;;;;;;15.93;69.80;97263.38;4877674;29;20052;-77
2022/07/09 08:00:59;;;;;;;4.60;2.33;;;;;;;15.99;70.36;97256.56;4877341;29;20405;-77
2022/07/09 08:03:26;;;;;;;5.35;2.60;;;;;;;16.16;69.09;97261.97;4877121;29;20065;-78
2022/07/09 08:05:52;;;;;;;7.28;2.00;;;;;;;16.30;67.13;97254.28;4877560;29;20064;-78
2022/07/09 08:08:21;;;;;;;5.50;2.20;;;;;;;16.44;67.36;97260.34;4877100;29;20049;-77
2022/07/09 08:10:48;;;;;;;5.28;2.33;;;;;;;16.49;65.94;97258.50;4876849;29;20520;-77
2022/07/09 08:13:16;;;;;;;5.50;2.33;;;;;;;16.66;66.48;97261.16;4876895;29;20057;-77
2022/07/09 08:15:43;;;;;;;7.00;2.40;;;;;;;17.15;66.30;97250.41;4877143;29;20060;-78
2022/07/09 08:18:12;;;;;;;3.25;1.70;;;;;;;17.62;60.58;97252.81;4876702;29;20071;-77
2022/07/09 08:20:38;;;;;;;3.75;1.88;;;;;;;17.87;61.70;97248.97;4877223;29;20053;-77
2022/07/09 08:23:05;;;;;;;5.90;2.40;;;;;;;18.26;60.61;97246.66;4876428;29;20044;-78
2022/07/09 08:25:34;;;;;;;5.22;2.30;;;;;;;18.77;59.30;97250.63;4877031;29;20045;-77
2022/07/09 08:28:01;;;;;;;4.50;1.80;;;;;;;19.13;59.65;97250.84;4877413;29;20545;-77
2022/07/09 08:30:29;;;;;;;5.60;2.10;;;;;;;19.24;54.23;97229.84;4876658;29;20060;-77
2022/07/09 08:32:56;;;;;;;4.13;1.70;;;;;;;19.19;54.68;97238.38;4876378;29;20441;-78
2022/07/09 08:35:25;;;;;;;4.93;2.05;;;;;;;18.98;55.07;97233.88;4876608;29;20045;-78
2022/07/09 08:37:51;;;;;;;5.13;1.58;;;;;;;19.16;55.94;97234.38;4876797;29;20450;-79
2022/07/09 08:40:18;;;;;;;6.50;1.55;;;;;;;19.47;56.61;97233.63;4876320;29;20045;-78
2022/07/09 08:42:45;;;;;;;5.72;1.52;;;;;;;19.48;55.95;97223.41;4876929;29;20037;-77
2022/07/09 08:45:13;;;;;;;5.70;1.60;;;;;;;19.14;55.56;97233.13;4876412;29;20041;-78
2022/07/09 08:47:42;;;;;;;4.68;1.60;;;;;;;19.31;53.93;97224.50;4876921;29;20045;-76
2022/07/09 08:50:10;;;;;;;6.47;1.83;;;;;;;19.27;53.48;97223.63;4876321;29;20049;-75
2022/07/09 08:52:36;;;;;;;3.42;1.40;;;;;;;19.53;55.24;97225.91;4876710;29;20053;-76
2022/07/09 08:55:04;;;;;;;5.88;1.35;;;;;;;19.72;54.76;97222.44;4876405;29;20490;-76
2022/07/09 08:57:31;;;;;;;3.38;1.45;;;;;;;19.94;57.24;97219.06;4877054;29;20061;-75
2022/07/09 08:59:58;;;;;;;5.90;1.67;;;;;;;20.04;57.27;97224.03;4876264;29;20044;-76
2022/07/09 09:02:34;;;;;;;4.55;1.60;;;;;;;20.08;52.13;97219.38;4876186;29;20049;-76
2022/07/09 09:05:07;;;;;;;6.45;1.58;;;;;;;19.83;51.66;97225.47;4876477;29;20453;-76
2022/07/09 09:07:34;;;;;;;3.95;1.40;;;;;;;19.99;51.82;97216.03;4876497;29;20040;-79
2022/07/09 09:10:00;;;;;;;5.63;1.63;;;;;;;20.30;55.11;97206.84;4876393;29;20132;-75
2022/07/09 09:12:28;;;;;;;5.45;1.65;;;;;;;20.60;53.25;97214.66;4875950;29;20052;-77
2022/07/09 09:14:55;;;;;;;5.30;1.75;;;;;;;20.29;50.54;97212.75;4876353;29;20049;-77
2022/07/09 09:17:22;;;;;;;2.92;1.42;;;;;;;20.04;53.18;97215.72;4875762;29;20053;-77
2022/07/09 09:19:48;;;;;;;3.00;1.25;;;;;;;20.19;53.30;97216.88;4876094;29;20080;-78
2022/07/09 09:22:18;;;;;;;4.72;1.75;;;;;;;20.14;53.79;97213.59;4875948;29;20625;-77
2022/07/09 09:24:49;;;;;;;4.28;1.50;;;;;;;20.07;52.36;97215.03;4876186;29;20049;-77
2022/07/09 09:27:19;;;;;;;5.78;1.55;;;;;;;20.46;54.93;97211.53;4876132;29;20084;-77
2022/07/09 09:29:52;;;;;;;6.97;1.88;;;;;;;20.97;57.37;97215.03;4876031;29;20056;-77
2022/07/09 09:32:21;;;;;;;5.78;1.90;;;;;;;21.24;53.18;97206.84;4875743;29;20045;-77
2022/07/09 09:34:50;;;;;;;4.88;1.50;;;;;;;21.41;53.80;97206.44;4876248;29;20438;-77
2022/07/09 09:37:27;;;;;;;3.80;1.60;;;;;;;21.49;52.25;97207.34;4875289;29;20045;-77
2022/07/09 09:39:54;;;;;;;5.63;1.30;;;;;;;21.67;49.42;97204.91;4876055;29;20049;-76
2022/07/09 09:42:24;;;;;;;6.55;1.88;;;;;;;21.87;52.53;97203.63;4875508;29;20053;-77
2022/07/09 09:44:51;;;;;;;5.38;1.58;;;;;;;21.83;52.87;97198.06;4876279;29;20049;-77
2022/07/09 09:47:23;;;;;;;5.93;1.73;;;;;;;21.74;51.95;97202.25;4879345;29;20053;-76
2022/07/09 09:49:50;;;;;;;5.22;1.33;;;;;;;22.03;52.61;97193.22;4879674;29;20044;-77
2022/07/09 09:52:19;;;;;;;4.93;1.73;;;;;;;22.12;48.15;97199.31;4879340;29;20390;-76
2022/07/09 09:54:49;;;;;;;4.10;1.60;;;;;;;22.05;47.73;97195.63;4879325;29;20423;-77
2022/07/09 09:57:17;;;;;;;7.07;1.75;;;;;;;22.06;49.19;97184.13;4879695;29;20520;-77
2022/07/09 09:59:45;;;;;;;4.63;1.27;;;;;;;22.11;51.21;97181.06;4879337;29;20416;-78
2022/07/09 10:02:12;;;;;;;7.93;1.80;;;;;;;21.99;48.16;97180.47;4879043;29;20421;-76
2022/07/09 10:04:40;;;;;;;5.22;1.58;;;;;;;21.93;48.87;97180.00;4879736;29;20045;-77
2022/07/09 10:07:08;;;;;;;2.95;1.25;;;;;;;22.09;50.99;97169.53;4879078;29;20060;-77
2022/07/09 10:09:35;;;;;;;5.80;1.60;;;;;;;22.03;50.98;97176.59;4879456;29;20049;-77
2022/07/09 10:12:03;;;;;;;3.90;1.27;;;;;;;22.11;54.32;97172.75;4879001;29;20049;-77
2022/07/09 10:14:31;;;;;;;5.60;1.70;;;;;;;22.36;51.58;97166.78;4879682;29;20060;-77
2022/07/09 10:17:11;;;;;;;5.35;1.40;;;;;;;22.43;51.07;97166.88;4879199;29;20045;-77
2022/07/09 10:19:38;;;;;;;6.68;1.48;;;;;;;22.61;47.68;97172.66;4860377;29;20125;-76
2022/07/09 10:22:05;;;;;;;4.68;1.50;;;;;;;22.28;44.25;97167.84;4860078;29;20045;-77
2022/07/09 10:24:34;;;;;;;5.43;1.50;;;;;;;22.03;45.54;97164.66;4860522;29;20045;-77
2022/07/09 10:27:07;;;;;;;4.82;1.38;;;;;;;22.22;45.40;97166.56;4860504;29;20063;-78
2022/07/09 10:29:34;;;;;;;4.57;1.88;;;;;;;22.38;49.43;97158.88;4860302;29;20069;-77
2022/07/09 10:32:02;;;;;;;3.92;1.25;;;;;;;22.40;44.61;97153.75;4860538;29;20037;-77
2022/07/09 10:34:47;;;;;;;4.72;1.40;;;;;;;21.93;48.14;97155.03;4859944;29;20074;-77
2022/07/09 10:37:14;;;;;;;4.05;1.23;;;;;;;21.67;49.63;97163.31;4859765;29;20076;-76
2022/07/09 10:39:40;;;;;;;5.03;1.55;;;;;;;21.57;50.59;97160.00;4860336;29;20050;-77
2022/07/09 10:42:18;;;;;;;2.67;1.33;;;;;;;21.47;49.44;97154.28;4859818;29;20061;-77
2022/07/09 10:44:46;;;;;;;3.33;1.20;;;;;;;21.48;48.98;97156.66;4860234;29;20049;-79
2022/07/09 10:47:13;;;;;;;3.45;1.20;;;;;;;21.43;48.99;97158.94;4859870;29;20046;-78
2022/07/09 10:49:40;;;;;;;3.03;1.38;;;;;;;21.29;50.72;97156.69;4860295;29;20491;-77
2022/07/09 10:52:07;;;;;;;3.35;1.20;;;;;;;21.19;47.52;97160.84;4859551;29;20053;-77
2022/07/09 10:54:34;;;;;;;2.88;1.23;;;;;;;20.98;49.27;97154.91;4860113;29;20074;-77
2022/07/09 10:57:01;;;;;;;3.50;1.30;;;;;;;20.76;52.73;97165.56;4860483;29;20045;-77
2022/07/09 10:59:29;;;;;;;4.22;1.55;;;;;;;20.36;53.69;97157.63;4859760;29;20041;-77
2022/07/09 11:01:56;;;;;;;5.13;1.50;;;;;;;20.10;54.11;97162.91;4859893;29;20057;-78
2022/07/09 11:04:27;;;;;;;4.30;1.50;;;;;;;19.93;54.97;97162.16;4859524;29;20132;-78
2022/07/09 11:06:54;;;;;;;7.25;1.48;;;;;;;19.83;54.54;97157.19;4859766;29;20041;-77
2022/07/09 11:09:21;;;;;;;6.15;1.50;;;;;;;19.84;54.74;97149.69;4859343;29;20054;-78
2022/07/09 11:11:49;;;;;;;4.10;1.17;;;;;;;19.88;53.47;97145.03;4859771;29;20057;-78
2022/07/09 11:14:16;;;;;;;2.58;1.45;;;;;;;19.83;53.39;97146.13;4859301;29;20049;-77
2022/07/09 11:16:54;;;;;;;4.05;1.20;;;;;;;19.91;54.92;97136.84;4859877;29;20057;-78
2022/07/09 11:19:21;;;;;;;2.97;1.30;;;;;;;20.04;54.99;97140.28;4859266;29;20125;-78
2022/07/09 11:21:48;;;;;;;5.70;1.60;;;;;;;20.12;53.68;97135.72;4859537;29;20060;-79
2022/07/09 11:24:16;;;;;;;2.65;1.20;;;;;;;20.29;53.76;97127.00;4859011;29;20068;-77
2022/07/09 11:26:43;;;;;;;5.72;1.60;;;;;;;20.59;55.45;97130.06;4866473;29;20048;-78
2022/07/09 11:29:10;;;;;;;4.78;1.40;;;;;;;21.00;52.25;97131.25;4877208;29;20053;-77
2022/07/09 11:31:38;;;;;;;3.60;1.40;;;;;;;21.26;49.78;97126.97;4878143;29;20049;-76
2022/07/09 11:34:12;;;;;;;5.20;1.42;;;;;;;21.28;48.56;97127.38;4877565;29;20418;-77